createdAt,value
2023-04-23T00:00:56.175Z,645.0000
2023-04-23T00:01:57.818Z,645.5385
2023-04-23T00:02:59.873Z,644.1539
2023-04-23T00:04:01.474Z,641.6154
2023-04-23T00:05:02.784Z,641.7692
2023-04-23T00:06:04.467Z,643.7692
2023-04-23T00:07:06.013Z,643.9231
2023-04-23T00:08:07.794Z,646.1539
2023-04-23T00:09:09.335Z,645.6923
2023-04-23T00:10:11.007Z,644.6923
2023-04-23T00:11:13.192Z,645.3077
2023-04-23T00:12:14.282Z,646.2308
2023-04-23T00:13:15.909Z,647.6923
2023-04-23T00:14:17.629Z,647.9231
2023-04-23T00:15:19.719Z,645.1539
2023-04-23T00:16:20.887Z,646.6923
2023-04-23T00:17:22.492Z,647.3846
2023-04-23T00:18:24.154Z,647.3846
2023-04-23T00:19:25.828Z,649.0000
2023-04-23T00:20:27.405Z,651.5385
2023-04-23T00:21:29.030Z,650.3077
2023-04-23T00:22:30.737Z,651.3077
2023-04-23T00:23:32.447Z,652.5385
2023-04-23T00:24:34.330Z,653.0000
2023-04-23T00:25:35.590Z,651.1539
2023-04-23T00:26:37.313Z,651.8461
2023-04-23T00:27:38.931Z,652.5385
2023-04-23T00:28:41.340Z,651.7692
2023-04-23T00:29:42.215Z,651.7692
2023-04-23T00:30:43.883Z,652.4615
2023-04-23T00:31:45.485Z,653.9231
2023-04-23T00:32:47.330Z,653.8461
2023-04-23T00:33:48.736Z,654.0769
2023-04-23T00:34:50.770Z,654.4615
2023-04-23T00:35:52.018Z,654.9231
2023-04-23T00:36:53.733Z,653.3077
2023-04-23T00:37:55.290Z,651.1539
2023-04-23T00:38:57.027Z,649.0769
2023-04-23T00:39:58.764Z,648.4615
2023-04-23T00:41:00.353Z,648.3077
2023-04-23T00:42:01.878Z,650.9231
2023-04-23T00:43:03.568Z,648.7692
2023-04-23T00:44:05.325Z,647.0000
2023-04-23T00:45:06.861Z,643.1539
2023-04-23T00:46:09.314Z,641.4615
2023-04-23T00:47:10.072Z,639.9231
2023-04-23T00:48:11.805Z,640.2308
2023-04-23T00:49:14.323Z,641.8461
2023-04-23T00:50:15.163Z,643.3077
2023-04-23T00:51:17.370Z,644.5385
2023-04-23T00:52:18.359Z,644.7692
2023-04-23T00:53:19.982Z,643.5385
2023-04-23T00:54:21.570Z,644.3846
2023-04-23T00:55:23.331Z,642.0000
2023-04-23T00:56:24.960Z,640.0000
2023-04-23T00:57:26.594Z,638.7692
2023-04-23T00:58:28.140Z,637.5385
2023-04-23T00:59:29.817Z,636.9231
2023-04-23T01:00:32.319Z,637.2308
2023-04-23T01:01:33.251Z,637.3846
2023-04-23T01:02:34.812Z,640.3077
2023-04-23T01:03:36.682Z,641.4615
2023-04-23T01:04:38.177Z,640.3077
2023-04-23T01:05:39.853Z,636.4615
2023-04-23T01:06:41.472Z,634.3077
2023-04-23T01:07:43.079Z,630.8461
2023-04-23T01:08:44.727Z,630.6923
2023-04-23T01:09:46.396Z,631.3846
2023-04-23T01:10:48.102Z,631.4615
2023-04-23T01:11:49.755Z,629.9231
2023-04-23T01:12:51.277Z,630.7692
2023-04-23T01:13:52.991Z,630.7692
2023-04-23T01:14:54.538Z,629.1539
2023-04-23T01:15:56.268Z,629.0769
2023-04-23T01:16:58.874Z,629.6923
2023-04-23T01:17:59.593Z,630.0000
2023-04-23T01:19:01.084Z,630.2308
2023-04-23T01:20:02.746Z,629.8461
2023-04-23T01:21:04.467Z,627.6154
2023-04-23T01:22:06.139Z,627.6154
2023-04-23T01:23:07.763Z,629.4615
2023-04-23T01:24:09.367Z,631.3846
2023-04-23T01:25:10.977Z,633.6923
2023-04-23T01:26:13.592Z,633.8461
2023-04-23T01:27:14.341Z,634.4615
2023-04-23T01:28:15.956Z,636.2308
2023-04-23T01:29:17.599Z,634.7692
2023-04-23T01:30:19.232Z,634.3846
2023-04-23T01:31:20.966Z,633.8461
2023-04-23T01:32:22.647Z,631.8461
2023-04-23T01:33:24.118Z,628.9231
2023-04-23T01:34:26.778Z,628.8461
2023-04-23T01:35:27.343Z,629.3077
2023-04-23T01:36:29.359Z,628.1539
2023-04-23T01:37:30.818Z,626.0769
2023-04-23T01:38:33.295Z,624.0000
2023-04-23T01:39:33.996Z,623.0769
2023-04-23T01:40:36.014Z,621.4615
2023-04-23T01:41:37.237Z,622.5385
2023-04-23T01:42:38.944Z,622.2308
2023-04-23T01:43:40.558Z,622.0000
2023-04-23T01:44:42.568Z,622.1539
2023-04-23T01:45:43.914Z,623.6923
2023-04-23T01:46:45.432Z,624.1539
2023-04-23T01:47:47.224Z,624.6154
2023-04-23T01:48:48.762Z,625.5385
2023-04-23T01:49:50.397Z,626.1539
2023-04-23T01:50:52.141Z,626.3846
2023-04-23T01:51:53.672Z,627.0000
2023-04-23T01:52:55.406Z,626.3846
2023-04-23T01:53:56.918Z,625.0000
2023-04-23T01:54:59.038Z,623.1539
2023-04-23T01:56:00.236Z,624.0769
2023-04-23T01:57:01.880Z,626.3846
2023-04-23T01:58:03.505Z,628.5385
2023-04-23T01:59:06.466Z,628.3846
2023-04-23T02:00:06.760Z,629.2308
2023-04-23T02:01:09.492Z,629.1539
2023-04-23T02:02:10.069Z,629.1539
2023-04-23T02:03:11.892Z,630.3846
2023-04-23T02:04:13.380Z,630.9231
2023-04-23T02:05:15.181Z,630.8461
2023-04-23T02:06:16.613Z,630.7692
2023-04-23T02:07:18.286Z,633.0000
2023-04-23T02:08:19.938Z,632.2308
2023-04-23T02:09:22.649Z,628.8461
2023-04-23T02:10:23.163Z,630.3846
2023-04-23T02:11:25.096Z,632.3846
2023-04-23T02:12:26.584Z,631.6923
2023-04-23T02:13:28.514Z,630.3846
2023-04-23T02:14:29.756Z,627.2308
2023-04-23T02:15:31.487Z,626.1539
2023-04-23T02:16:33.136Z,628.2308
2023-04-23T02:17:34.784Z,628.2308
2023-04-23T02:18:36.366Z,628.5385
2023-04-23T02:19:38.083Z,628.0000
2023-04-23T02:20:39.666Z,628.0000
2023-04-23T02:21:41.422Z,628.0769
2023-04-23T02:22:43.882Z,630.5385
2023-04-23T02:23:44.664Z,629.8461
2023-04-23T02:24:46.306Z,626.1539
2023-04-23T02:25:48.004Z,625.5385
2023-04-23T02:26:49.549Z,625.0000
2023-04-23T02:27:51.218Z,624.3077
2023-04-23T02:28:53.010Z,624.9231
2023-04-23T02:29:54.499Z,623.4615
2023-04-23T02:30:56.090Z,624.3846
2023-04-23T02:31:57.930Z,625.6923
2023-04-23T02:32:59.437Z,626.2308
2023-04-23T02:34:01.029Z,626.1539
2023-04-23T02:35:02.645Z,626.3077
2023-04-23T02:36:04.308Z,625.4615
2023-04-23T02:37:06.957Z,626.4615
2023-04-23T02:38:07.521Z,625.9231
2023-04-23T02:39:09.102Z,625.6923
2023-04-23T02:40:10.907Z,625.3846
2023-04-23T02:41:12.928Z,625.6154
2023-04-23T02:42:14.204Z,625.8461
2023-04-23T02:43:15.783Z,623.9231
2023-04-23T02:44:17.426Z,625.8461
2023-04-23T02:45:19.088Z,629.0000
2023-04-23T02:46:20.780Z,629.1539
2023-04-23T02:47:22.447Z,628.5385
2023-04-23T02:48:24.031Z,628.0000
2023-04-23T02:49:25.650Z,625.8461
2023-04-23T02:50:27.305Z,623.0769
2023-04-23T02:51:29.509Z,624.9231
2023-04-23T02:52:30.579Z,627.3846
2023-04-23T02:53:32.217Z,626.7692
2023-04-23T02:54:33.829Z,625.6154
2023-04-23T02:55:35.500Z,625.7692
2023-04-23T02:56:37.144Z,625.8461
2023-04-23T02:57:38.932Z,625.7692
2023-04-23T02:58:40.392Z,625.8461
2023-04-23T02:59:42.118Z,625.0000
2023-04-23T03:00:43.725Z,623.0000
2023-04-23T03:01:45.394Z,624.1539
2023-04-23T03:02:47.126Z,625.5385
2023-04-23T03:03:48.869Z,624.1539
2023-04-23T03:04:50.256Z,625.6923
2023-04-23T03:05:51.926Z,622.2308
2023-04-23T03:06:53.639Z,618.7692
2023-04-23T03:07:55.936Z,618.3846
2023-04-23T03:08:56.812Z,617.5385
2023-04-23T03:09:58.539Z,618.6154
2023-04-23T03:11:00.167Z,619.4615
2023-04-23T03:12:02.486Z,620.3077
2023-04-23T03:13:03.454Z,620.6154
2023-04-23T03:14:05.140Z,620.5385
2023-04-23T03:15:06.706Z,622.6154
2023-04-23T03:16:08.934Z,621.6923
2023-04-23T03:17:10.060Z,620.0769
2023-04-23T03:18:11.716Z,618.0769
2023-04-23T03:19:13.345Z,618.9231
2023-04-23T03:20:15.914Z,621.6154
2023-04-23T03:21:16.557Z,623.3846
2023-04-23T03:22:18.307Z,623.0769
2023-04-23T03:23:19.926Z,623.4615
2023-04-23T03:24:21.559Z,623.3846
2023-04-23T03:25:23.117Z,624.0769
2023-04-23T03:26:24.828Z,624.2308
2023-04-23T03:27:26.481Z,622.9231
2023-04-23T03:28:28.162Z,625.0000
2023-04-23T03:29:29.707Z,626.7692
2023-04-23T03:30:31.381Z,624.8461
2023-04-23T03:31:32.975Z,623.7692
2023-04-23T03:32:34.714Z,621.5385
2023-04-23T03:33:36.341Z,620.6923
2023-04-23T03:34:37.952Z,624.3846
2023-04-23T03:35:39.594Z,626.3077
2023-04-23T03:36:41.204Z,629.1539
2023-04-23T03:37:42.907Z,631.4615
2023-04-23T03:38:44.596Z,630.0769
2023-04-23T03:39:46.147Z,629.3077
2023-04-23T03:40:47.843Z,629.9231
2023-04-23T03:41:49.418Z,630.0769
2023-04-23T03:42:51.169Z,630.3846
2023-04-23T03:43:53.430Z,631.8461
2023-04-23T03:44:54.371Z,631.6923
2023-04-23T03:45:56.104Z,631.0769
2023-04-23T03:46:58.402Z,632.0769
2023-04-23T03:47:59.428Z,633.0769
2023-04-23T03:49:01.454Z,631.0000
2023-04-23T03:50:02.604Z,627.8461
2023-04-23T03:51:04.229Z,627.0000
2023-04-23T03:52:05.908Z,624.2308
2023-04-23T03:53:07.596Z,622.4615
2023-04-23T03:54:09.128Z,623.6923
2023-04-23T03:55:10.787Z,624.0769
2023-04-23T03:56:12.397Z,623.6923
2023-04-23T03:57:14.016Z,624.3077
2023-04-23T03:58:15.700Z,625.6154
2023-04-23T03:59:17.333Z,624.8461
2023-04-23T04:00:19.032Z,622.9231
2023-04-23T04:01:20.594Z,624.0000
2023-04-23T04:02:22.408Z,626.1539
2023-04-23T04:03:25.185Z,628.3846
2023-04-23T04:04:25.832Z,626.9231
2023-04-23T04:05:27.309Z,623.8461
2023-04-23T04:06:28.914Z,623.7692
2023-04-23T04:07:30.464Z,623.2308
2023-04-23T04:08:32.133Z,622.6923
2023-04-23T04:09:33.764Z,625.5385
2023-04-23T04:10:35.932Z,626.6154
2023-04-23T04:11:37.410Z,626.2308
2023-04-23T04:12:38.739Z,626.2308
2023-04-23T04:13:40.370Z,626.3077
2023-04-23T04:14:42.301Z,626.1539
2023-04-23T04:15:44.459Z,626.5385
2023-04-23T04:16:45.368Z,626.3077
2023-04-23T04:17:47.017Z,627.3077
2023-04-23T04:18:48.724Z,628.4615
2023-04-23T04:19:50.606Z,629.6923
2023-04-23T04:20:52.031Z,630.9231
2023-04-23T04:21:53.630Z,628.6923
2023-04-23T04:22:55.295Z,626.2308
2023-04-23T04:23:57.980Z,625.0769
2023-04-23T04:24:58.454Z,626.9231
2023-04-23T04:26:00.203Z,624.3077
2023-04-23T04:27:01.869Z,623.0000
2023-04-23T04:28:03.554Z,621.6923
2023-04-23T04:29:05.126Z,620.0769
2023-04-23T04:30:06.880Z,617.6154
2023-04-23T04:31:08.505Z,617.7692
2023-04-23T04:32:10.098Z,618.2308
2023-04-23T04:33:11.770Z,618.7692
2023-04-23T04:34:13.449Z,620.2308
2023-04-23T04:35:14.968Z,623.1539
2023-04-23T04:36:16.703Z,623.3077
2023-04-23T04:37:18.279Z,625.3077
2023-04-23T04:38:19.960Z,629.8461
2023-04-23T04:39:21.583Z,629.0769
2023-04-23T04:40:23.278Z,629.9231
2023-04-23T04:41:24.920Z,627.6154
2023-04-23T04:42:26.534Z,627.3077
2023-04-23T04:43:28.227Z,626.6923
2023-04-23T04:44:29.796Z,627.6923
2023-04-23T04:45:31.509Z,625.5385
2023-04-23T04:46:33.131Z,626.7692
2023-04-23T04:47:34.776Z,625.8461
2023-04-23T04:48:37.377Z,624.2308
2023-04-23T04:49:38.089Z,623.6923
2023-04-23T04:50:39.680Z,624.6923
2023-04-23T04:51:41.293Z,627.5385
2023-04-23T04:52:42.983Z,627.6154
2023-04-23T04:53:44.589Z,628.1539
2023-04-23T04:54:46.226Z,627.6923
2023-04-23T04:55:47.907Z,626.6923
2023-04-23T04:56:49.627Z,628.3846
2023-04-23T04:57:52.200Z,628.1539
2023-04-23T04:58:53.776Z,625.6923
2023-04-23T04:59:55.350Z,627.3077
2023-04-23T05:00:56.098Z,625.8461
2023-04-23T05:01:57.793Z,622.0769
2023-04-23T05:02:59.535Z,619.0769
2023-04-23T05:04:01.109Z,617.7692
2023-04-23T05:05:02.619Z,621.0769
2023-04-23T05:06:04.302Z,620.2308
2023-04-23T05:07:05.925Z,619.0769
2023-04-23T05:08:07.574Z,620.7692
2023-04-23T05:09:09.173Z,623.0769
2023-04-23T05:10:10.931Z,624.0769
2023-04-23T05:11:12.498Z,625.2308
2023-04-23T05:12:14.238Z,628.3846
2023-04-23T05:13:15.855Z,629.2308
2023-04-23T05:14:17.459Z,627.0769
2023-04-23T05:15:19.108Z,627.4615
2023-04-23T05:16:20.871Z,628.3846
2023-04-23T05:17:23.075Z,627.6154
2023-04-23T05:18:24.120Z,628.0000
2023-04-23T05:19:25.647Z,627.9231
2023-04-23T05:20:27.352Z,626.9231
2023-04-23T05:21:29.022Z,628.4615
2023-04-23T05:22:30.670Z,629.6923
2023-04-23T05:23:32.213Z,631.6923
2023-04-23T05:24:33.948Z,634.3077
2023-04-23T05:25:35.580Z,633.7692
2023-04-23T05:26:37.267Z,630.6154
2023-04-23T05:27:38.893Z,628.4615
2023-04-23T05:28:40.517Z,625.6154
2023-04-23T05:29:42.118Z,624.8461
2023-04-23T05:30:43.804Z,625.3077
2023-04-23T05:31:45.498Z,624.4615
2023-04-23T05:32:47.198Z,624.2308
2023-04-23T05:33:50.504Z,628.3077
2023-04-23T05:34:50.372Z,630.3077
2023-04-23T05:35:52.019Z,629.6154
2023-04-23T05:36:53.772Z,628.9231
2023-04-23T05:37:55.373Z,628.4615
2023-04-23T05:38:56.996Z,629.2308
2023-04-23T05:39:58.577Z,630.0769
2023-04-23T05:41:00.291Z,630.7692
2023-04-23T05:42:02.405Z,630.7692
2023-04-23T05:43:03.579Z,630.3077
2023-04-23T05:44:05.185Z,630.6923
2023-04-23T05:45:08.864Z,627.0000
2023-04-23T05:46:08.512Z,625.2308
2023-04-23T05:47:10.203Z,626.7692
2023-04-23T05:48:11.843Z,626.6923
2023-04-23T05:49:13.468Z,628.0000
2023-04-23T05:50:15.092Z,628.1539
2023-04-23T05:51:16.788Z,627.0000
2023-04-23T05:52:18.434Z,628.3846
2023-04-23T05:53:20.162Z,630.3077
2023-04-23T05:54:21.653Z,628.6923
2023-04-23T05:55:23.338Z,628.6923
2023-04-23T05:56:25.058Z,625.2308
2023-04-23T05:57:27.525Z,623.3077
2023-04-23T05:58:28.346Z,623.6154
2023-04-23T05:59:29.978Z,625.0000
2023-04-23T06:00:31.630Z,626.9231
2023-04-23T06:01:33.205Z,627.3077
2023-04-23T06:02:35.042Z,626.7692
2023-04-23T06:03:36.793Z,625.0000
2023-04-23T06:04:38.361Z,625.2308
2023-04-23T06:05:39.835Z,626.5385
2023-04-23T06:06:41.484Z,627.1539
2023-04-23T06:07:43.180Z,627.2308
2023-04-23T06:08:45.063Z,628.3846
2023-04-23T06:09:46.401Z,628.2308
2023-04-23T06:10:48.108Z,628.6154
2023-04-23T06:11:49.683Z,629.2308
2023-04-23T06:12:51.592Z,627.3846
2023-04-23T06:13:53.060Z,627.0000
2023-04-23T06:14:54.689Z,630.8461
2023-04-23T06:15:56.319Z,632.1539
2023-04-23T06:16:57.981Z,631.2308
2023-04-23T06:17:59.666Z,628.6923
2023-04-23T06:19:01.588Z,626.0000
2023-04-23T06:20:02.904Z,624.1539
2023-04-23T06:21:04.566Z,623.9231
2023-04-23T06:22:06.164Z,624.6923
2023-04-23T06:23:07.866Z,626.2308
2023-04-23T06:24:09.504Z,630.3077
2023-04-23T06:25:11.180Z,629.1539
2023-04-23T06:26:12.722Z,624.9231
2023-04-23T06:27:14.421Z,622.0769
2023-04-23T06:28:16.163Z,619.1539
2023-04-23T06:29:17.758Z,618.5385
2023-04-23T06:30:19.374Z,616.9231
2023-04-23T06:31:21.061Z,613.5385
2023-04-23T06:32:22.630Z,613.0000
2023-04-23T06:33:24.284Z,611.4615
2023-04-23T06:34:26.131Z,612.6154
2023-04-23T06:35:27.635Z,612.9231
2023-04-23T06:36:29.166Z,610.6154
2023-04-23T06:37:31.029Z,607.0769
2023-04-23T06:38:32.428Z,605.6923
2023-04-23T06:39:34.183Z,605.7692
2023-04-23T06:40:35.718Z,605.3846
2023-04-23T06:41:37.337Z,606.1539
2023-04-23T06:42:40.096Z,608.2308
2023-04-23T06:43:40.887Z,606.1539
2023-04-23T06:44:42.675Z,605.6154
2023-04-23T06:45:44.232Z,606.0000
2023-04-23T06:46:45.826Z,603.7692
2023-04-23T06:47:48.212Z,601.7692
2023-04-23T06:48:48.999Z,599.5385
2023-04-23T06:49:50.736Z,596.0000
2023-04-23T06:50:52.379Z,593.6154
2023-04-23T06:51:56.975Z,596.3846
2023-04-23T06:52:55.476Z,597.7692
2023-04-23T06:53:57.193Z,599.6154
2023-04-23T06:54:59.862Z,599.8461
2023-04-23T06:56:00.461Z,598.0769
2023-04-23T06:57:02.179Z,595.6923
2023-04-23T06:58:03.753Z,596.7692
2023-04-23T06:59:05.356Z,597.3077
2023-04-23T07:00:07.109Z,595.6923
2023-04-23T07:01:08.701Z,594.2308
2023-04-23T07:02:10.369Z,589.9231
2023-04-23T07:03:11.997Z,590.3077
2023-04-23T07:04:13.669Z,589.3077
2023-04-23T07:05:15.272Z,589.4615
2023-04-23T07:06:18.603Z,590.1539
2023-04-23T07:07:18.508Z,589.4615
2023-04-23T07:08:20.205Z,587.6923
2023-04-23T07:09:21.818Z,587.8461
2023-04-23T07:10:23.560Z,586.3846
2023-04-23T07:11:25.142Z,584.3846
2023-04-23T07:12:26.830Z,581.7692
2023-04-23T07:13:28.442Z,581.6154
2023-04-23T07:14:30.087Z,583.0769
2023-04-23T07:15:31.845Z,577.1539
2023-04-23T07:16:33.480Z,572.7692
2023-04-23T07:17:34.992Z,576.1539
2023-04-23T07:18:36.657Z,576.0769
2023-04-23T07:19:38.288Z,574.9231
2023-04-23T07:20:39.989Z,573.3077
2023-04-23T07:21:41.578Z,574.3846
2023-04-23T07:22:43.232Z,573.3846
2023-04-23T07:23:44.865Z,573.4615
2023-04-23T07:24:46.522Z,571.6154
2023-04-23T07:25:48.183Z,571.4615
2023-04-23T07:26:49.858Z,571.2308
2023-04-23T07:27:51.401Z,571.3846
2023-04-23T07:28:53.183Z,567.7692
2023-04-23T07:29:54.704Z,567.8461
2023-04-23T07:30:56.454Z,569.3846
2023-04-23T07:31:58.077Z,570.8461
2023-04-23T07:32:59.718Z,568.1539
2023-04-23T07:34:01.392Z,570.6923
2023-04-23T07:35:02.975Z,573.3846
2023-04-23T07:36:04.598Z,574.0000
2023-04-23T07:37:06.316Z,574.0769
2023-04-23T07:38:07.860Z,573.6154
2023-04-23T07:39:09.545Z,562.8461
2023-04-23T07:40:11.189Z,553.0000
2023-04-23T07:41:12.914Z,557.3846
2023-04-23T07:42:15.068Z,559.6923
2023-04-23T07:43:16.142Z,563.0000
2023-04-23T07:44:17.761Z,567.9231
2023-04-23T07:45:19.500Z,568.4615
2023-04-23T07:46:21.146Z,570.0769
2023-04-23T07:47:23.002Z,571.0000
2023-04-23T07:48:24.413Z,572.9231
2023-04-23T07:49:26.021Z,573.6923
2023-04-23T07:50:27.637Z,578.6923
2023-04-23T07:51:29.351Z,573.0769
2023-04-23T07:52:30.957Z,570.5385
2023-04-23T07:53:32.577Z,568.5385
2023-04-23T07:54:34.207Z,566.2308
2023-04-23T07:55:35.917Z,567.0769
2023-04-23T07:56:37.597Z,567.8461
2023-04-23T07:57:39.241Z,568.5385
2023-04-23T07:58:40.815Z,567.9231
2023-04-23T07:59:42.863Z,566.4615
2023-04-23T08:00:44.088Z,565.2308
2023-04-23T08:01:45.820Z,563.9231
2023-04-23T08:02:47.614Z,564.3077
2023-04-23T08:03:49.440Z,562.7692
2023-04-23T08:04:50.827Z,560.3846
2023-04-23T08:05:52.336Z,559.1539
2023-04-23T08:06:54.045Z,558.0000
2023-04-23T08:07:55.645Z,558.0000
2023-04-23T08:08:57.308Z,559.9231
2023-04-23T08:09:58.900Z,561.0000
2023-04-23T08:11:00.547Z,559.5385
2023-04-23T08:12:02.236Z,559.3077
2023-04-23T08:13:03.902Z,560.1539
2023-04-23T08:14:05.496Z,559.3077
2023-04-23T08:15:07.220Z,559.1539
2023-04-23T08:16:08.790Z,558.1539
2023-04-23T08:17:10.463Z,558.0769
2023-04-23T08:18:12.107Z,556.8461
2023-04-23T08:19:13.706Z,556.1539
2023-04-23T08:20:15.302Z,555.5385
2023-04-23T08:21:17.031Z,555.0000
2023-04-23T08:22:20.293Z,556.4615
2023-04-23T08:23:20.353Z,556.1539
2023-04-23T08:24:22.456Z,556.8461
2023-04-23T08:25:23.603Z,556.8461
2023-04-23T08:26:25.214Z,556.6154
2023-04-23T08:27:26.971Z,556.4615
2023-04-23T08:28:28.593Z,553.6923
2023-04-23T08:29:30.208Z,553.0000
2023-04-23T08:30:31.789Z,554.4615
2023-04-23T08:31:33.509Z,553.7692
2023-04-23T08:32:35.158Z,552.4615
2023-04-23T08:33:36.875Z,550.6154
2023-04-23T08:34:38.442Z,550.4615
2023-04-23T08:35:40.078Z,551.3077
2023-04-23T08:36:41.649Z,552.0000
2023-04-23T08:37:43.444Z,551.4615
2023-04-23T08:38:44.989Z,551.3846
2023-04-23T08:39:46.686Z,549.3077
2023-04-23T08:40:48.227Z,551.3846
2023-04-23T08:41:49.926Z,550.6154
2023-04-23T08:42:51.644Z,547.2308
2023-04-23T08:43:53.238Z,544.6154
2023-04-23T08:44:54.801Z,541.6923
2023-04-23T08:45:56.510Z,542.9231
2023-04-23T08:46:58.248Z,541.0769
2023-04-23T08:48:02.134Z,540.5385
2023-04-23T08:49:01.452Z,541.6923
2023-04-23T08:50:03.074Z,539.3846
2023-04-23T08:51:04.690Z,538.0000
2023-04-23T08:52:06.380Z,537.9231
2023-04-23T08:53:08.065Z,539.4615
2023-04-23T08:54:09.679Z,543.6154
2023-04-23T08:55:11.255Z,549.0000
2023-04-23T08:56:12.940Z,555.3846
2023-04-23T08:57:14.574Z,559.3846
2023-04-23T08:58:16.279Z,560.4615
2023-04-23T08:59:17.911Z,560.3846
2023-04-23T09:00:19.455Z,559.9231
2023-04-23T09:01:21.297Z,560.7692
2023-04-23T09:02:22.986Z,561.2308
2023-04-23T09:03:24.547Z,560.6154
2023-04-23T09:04:26.164Z,562.2308
2023-04-23T09:05:27.710Z,563.6154
2023-04-23T09:06:29.422Z,563.2308
2023-04-23T09:07:31.023Z,564.2308
2023-04-23T09:08:32.753Z,565.7692
2023-04-23T09:09:34.641Z,566.3846
2023-04-23T09:10:35.974Z,565.7692
2023-04-23T09:11:37.577Z,565.7692
2023-04-23T09:12:39.276Z,565.9231
2023-04-23T09:13:40.950Z,564.3077
2023-04-23T09:14:42.852Z,564.3846
2023-04-23T09:15:44.169Z,563.7692
2023-04-23T09:16:45.922Z,563.2308
2023-04-23T09:17:47.529Z,561.8461
2023-04-23T09:18:49.194Z,560.2308
2023-04-23T09:19:50.858Z,558.2308
2023-04-23T09:20:52.528Z,558.3077
2023-04-23T09:21:54.046Z,558.2308
2023-04-23T09:22:55.727Z,556.1539
2023-04-23T09:23:57.449Z,556.4615
2023-04-23T09:24:59.090Z,559.1539
2023-04-23T09:26:00.627Z,558.2308
2023-04-23T09:27:02.267Z,556.6154
2023-04-23T09:28:03.958Z,557.3077
2023-04-23T09:29:05.609Z,556.6923
2023-04-23T09:30:07.294Z,556.6154
2023-04-23T09:31:08.879Z,556.3846
2023-04-23T09:32:10.586Z,553.0769
2023-04-23T09:33:12.151Z,551.6923
2023-04-23T09:34:14.206Z,551.0000
2023-04-23T09:35:15.554Z,548.0769
2023-04-23T09:36:17.233Z,545.4615
2023-04-23T09:37:18.783Z,546.7692
2023-04-23T09:38:20.428Z,546.0000
2023-04-23T09:39:22.065Z,547.6923
2023-04-23T09:40:23.749Z,546.0000
2023-04-23T09:41:25.304Z,547.0769
2023-04-23T09:42:26.986Z,546.1539
2023-04-23T09:43:28.575Z,545.2308
2023-04-23T09:44:30.353Z,544.4615
2023-04-23T09:45:31.945Z,546.5385
2023-04-23T09:46:33.562Z,548.0000
2023-04-23T09:47:35.252Z,545.6923
2023-04-23T09:48:36.879Z,544.0769
2023-04-23T09:49:38.534Z,544.3077
2023-04-23T09:50:40.245Z,544.3846
2023-04-23T09:51:41.769Z,543.8461
2023-04-23T09:52:43.431Z,542.0769
2023-04-23T09:53:45.056Z,540.4615
2023-04-23T09:54:47.214Z,544.4615
2023-04-23T09:55:48.397Z,550.9231
2023-04-23T09:56:50.076Z,555.3846
2023-04-23T09:57:51.611Z,559.4615
2023-04-23T09:58:53.366Z,560.4615
2023-04-23T10:00:03.754Z,558.5385
2023-04-23T10:00:56.638Z,557.0000
2023-04-23T10:01:58.289Z,559.0769
2023-04-23T10:03:00.168Z,559.6923
2023-04-23T10:04:01.694Z,559.8461
2023-04-23T10:05:21.468Z,561.2308
2023-04-23T10:06:05.264Z,562.9231
2023-04-23T10:07:17.923Z,562.0000
2023-04-23T10:08:08.232Z,560.6923
2023-04-23T10:09:09.704Z,558.8461
2023-04-23T10:10:11.463Z,556.6154
2023-04-23T10:11:20.734Z,555.6154
2023-04-23T10:13:16.302Z,553.0769
2023-04-23T10:14:17.962Z,551.7692
2023-04-23T10:15:19.684Z,551.2308
2023-04-23T10:16:23.284Z,548.1539
2023-04-23T10:17:22.932Z,547.1539
2023-04-23T10:18:24.492Z,546.9231
2023-04-23T10:19:27.171Z,548.6923
2023-04-23T10:20:27.878Z,550.0000
2023-04-23T10:21:36.620Z,551.6923
2023-04-23T10:22:31.067Z,553.8461
2023-04-23T10:23:32.802Z,554.9231
2023-04-23T10:24:34.371Z,555.0000
2023-04-23T10:25:36.729Z,553.5385
2023-04-23T10:26:38.190Z,557.4615
2023-04-23T10:27:51.118Z,559.0000
2023-04-23T10:28:41.042Z,561.1539
2023-04-23T10:29:43.017Z,557.7692
2023-04-23T10:30:44.681Z,556.9231
2023-04-23T10:31:45.980Z,558.3077
2023-04-23T10:32:47.561Z,563.9231
2023-04-23T10:33:58.204Z,568.9231
2023-04-23T10:34:50.931Z,567.6923
2023-04-23T10:35:52.601Z,566.8461
2023-04-23T10:36:54.181Z,567.1539
2023-04-23T10:37:55.844Z,566.9231
2023-04-23T10:38:59.106Z,569.6923
2023-04-23T10:39:59.132Z,568.3077
2023-04-23T10:41:00.801Z,564.3846
2023-04-23T10:42:02.466Z,561.4615
2023-04-23T10:43:04.026Z,561.1539
2023-04-23T10:44:05.723Z,561.8461
2023-04-23T10:45:16.613Z,561.3846
2023-04-23T10:46:09.139Z,561.6154
2023-04-23T10:47:10.738Z,562.8461
2023-04-23T10:48:12.460Z,563.3846
2023-04-23T10:49:14.016Z,564.3077
2023-04-23T10:50:15.744Z,563.0769
2023-04-23T10:51:56.084Z,560.6154
2023-04-23T10:52:21.495Z,563.6154
2023-04-23T10:53:20.604Z,562.6923
2023-04-23T10:54:22.319Z,564.0000
2023-04-23T10:55:23.969Z,562.0000
2023-04-23T10:56:25.789Z,561.8461
2023-04-23T10:57:27.271Z,562.7692
2023-04-23T10:58:28.943Z,564.0769
2023-04-23T10:59:30.465Z,564.2308
2023-04-23T11:00:32.164Z,562.9231
2023-04-23T11:01:33.827Z,559.4615
2023-04-23T11:02:35.607Z,562.1539
2023-04-23T11:03:39.646Z,559.4615
2023-04-23T11:04:38.834Z,558.3846
2023-04-23T11:05:40.389Z,556.2308
2023-04-23T11:06:42.089Z,558.3077
2023-04-23T11:07:43.750Z,561.0769
2023-04-23T11:08:45.426Z,565.6923
2023-04-23T11:09:47.013Z,567.9231
2023-04-23T11:10:48.667Z,569.0000
2023-04-23T11:11:50.288Z,567.3077
2023-04-23T11:12:52.027Z,569.1539
2023-04-23T11:13:53.621Z,566.7692
2023-04-23T11:14:55.307Z,561.9231
2023-04-23T11:15:56.907Z,560.3846
2023-04-23T11:16:58.530Z,558.7692
2023-04-23T11:18:00.216Z,557.3846
2023-04-23T11:19:01.911Z,557.3846
2023-04-23T11:20:03.558Z,560.3846
2023-04-23T11:21:05.187Z,560.3077
2023-04-23T11:22:06.767Z,558.1539
2023-04-23T11:23:08.462Z,558.9231
2023-04-23T11:24:10.097Z,561.1539
2023-04-23T11:25:11.842Z,561.2308
2023-04-23T11:26:13.424Z,560.9231
2023-04-23T11:27:15.044Z,558.6923
2023-04-23T11:28:16.694Z,556.6923
2023-04-23T11:29:18.339Z,554.4615
2023-04-23T11:30:19.962Z,555.1539
2023-04-23T11:31:21.656Z,559.9231
2023-04-23T11:32:23.298Z,563.4615
2023-04-23T11:33:24.927Z,561.2308
2023-04-23T11:34:26.604Z,560.1539
2023-04-23T11:35:28.167Z,560.8461
2023-04-23T11:36:30.699Z,560.9231
2023-04-23T11:37:31.480Z,563.0769
2023-04-23T11:38:33.056Z,564.7692
2023-04-23T11:39:34.733Z,564.3077
2023-04-23T11:40:36.643Z,564.9231
2023-04-23T11:41:38.087Z,563.6154
2023-04-23T11:42:39.664Z,565.3077
2023-04-23T11:43:42.212Z,563.9231
2023-04-23T11:44:42.972Z,564.4615
2023-04-23T11:45:44.701Z,564.2308
2023-04-23T11:46:46.272Z,563.5385
2023-04-23T11:47:47.962Z,564.3846
2023-04-23T11:48:49.562Z,563.0769
2023-04-23T11:49:51.271Z,563.6154
2023-04-23T11:50:53.130Z,563.9231
2023-04-23T11:51:54.611Z,564.5385
2023-04-23T11:52:56.201Z,571.2308
2023-04-23T11:53:57.906Z,567.9231
2023-04-23T11:54:59.467Z,564.8461
2023-04-23T11:56:01.219Z,564.1539
2023-04-23T11:57:02.788Z,565.6154
2023-04-23T11:58:04.472Z,565.0000
2023-04-23T11:59:06.069Z,565.5385
2023-04-23T12:00:07.763Z,566.0000
2023-04-23T12:01:09.448Z,567.3846
2023-04-23T12:02:11.100Z,570.3846
2023-04-23T12:03:12.936Z,572.8461
2023-04-23T12:04:14.662Z,576.0000
2023-04-23T12:05:16.154Z,578.0769